Airport ICAO


14:35 UTC

10°C

Broken clouds


An affordable passengers' Moving Map for your aircraft. Made for the iPad and the iPhone
More information here

LFPN Le Noble


Toussous FRANCE   VFR


METAR LFPN 241430Z AUTO 26004KT 230V310 9999 BKN037 10/08 Q1012 NOSIG 0h05min

TAF LFPN 241400Z 2415/2424 24005KT 9999 BKN030 TEMPO 2415/2420 SCT040 0h35min





NOTAMS

OPEN